THY31K LTFM-LFPG
Flight info
| Callsign | THY31K |
|---|---|
| Flight time | N/A |
| Altitude | 36000 |
| Route | TUDBU1D/35L TUDBU Q26 ETUBA DCT ELDET DCT BACAM DCT SODGO DCT DIDIX DCT INVED DCT STEIN DCT RENKA L610 MAMOR DCT ASPAT DCT VIBOM DCT BETEX DCT IDOSA DCT TOLVU DCT RAPOR DCT VEDUS |
| Aircraft | B77W/H-SDE1E2E3FGHIJ2J3J4J5M1RWXY/LB1D1 |
Departure
| Time | 2026-05-06 22:50 |
|---|---|
| Airport | İstanbul Airport (LTFM) |
Arrival
| Time | N/A |
|---|---|
| Airport | Charles de Gaulle International Airport (LFPG) |
| Time | Latitude | Longitude | Altitude | Speed | Heading |
|---|---|---|---|---|---|
| 2026-05-06 22:17 | 41.26667 | 28.74117 | 318 ft | 0 kts | 89° |
| 2026-05-06 22:20 | 41.26667 | 28.74116 | 318 ft | 0 kts | 89° |
| 2026-05-06 22:40 | 41.26666 | 28.74099 | 318 ft | 4 kts | 90° |
| 2026-05-06 22:40 | 41.26667 | 28.74063 | 318 ft | 3 kts | 90° |
| 2026-05-06 22:40 | 41.26664 | 28.74035 | 318 ft | 4 kts | 51° |
| 2026-05-06 22:41 | 41.26622 | 28.74020 | 316 ft | 1 kts | 359° |
| 2026-05-06 22:41 | 41.26618 | 28.74020 | 316 ft | 0 kts | 359° |
| 2026-05-06 22:44 | 41.26623 | 28.74020 | 316 ft | 4 kts | 359° |
| 2026-05-06 22:44 | 41.26685 | 28.74019 | 318 ft | 13 kts | 359° |
| 2026-05-06 22:44 | 41.26777 | 28.74016 | 318 ft | 13 kts | 358° |
| 2026-05-06 22:45 | 41.26846 | 28.74009 | 318 ft | 6 kts | 338° |
| 2026-05-06 22:45 | 41.26872 | 28.73966 | 318 ft | 6 kts | 292° |
| 2026-05-06 22:45 | 41.26874 | 28.73927 | 318 ft | 6 kts | 269° |
| 2026-05-06 22:45 | 41.26873 | 28.73868 | 318 ft | 7 kts | 270° |
| 2026-05-06 22:46 | 41.26873 | 28.73806 | 318 ft | 7 kts | 268° |
| 2026-05-06 22:46 | 41.26871 | 28.73741 | 318 ft | 7 kts | 269° |
| 2026-05-06 22:46 | 41.26871 | 28.73673 | 318 ft | 7 kts | 269° |
| 2026-05-06 22:46 | 41.26870 | 28.73599 | 318 ft | 9 kts | 269° |
| 2026-05-06 22:47 | 41.26873 | 28.73496 | 318 ft | 13 kts | 274° |
| 2026-05-06 22:47 | 41.26873 | 28.73362 | 318 ft | 15 kts | 265° |
| 2026-05-06 22:47 | 41.26866 | 28.73222 | 317 ft | 15 kts | 268° |
| 2026-05-06 22:47 | 41.26851 | 28.73129 | 317 ft | 9 kts | 223° |
| 2026-05-06 22:48 | 41.26792 | 28.73109 | 315 ft | 14 kts | 182° |
| 2026-05-06 22:48 | 41.26718 | 28.73027 | 314 ft | 15 kts | 266° |
| 2026-05-06 22:48 | 41.26716 | 28.72886 | 314 ft | 15 kts | 268° |
| 2026-05-06 22:48 | 41.26725 | 28.72784 | 316 ft | 10 kts | 312° |
| 2026-05-06 22:49 | 41.26770 | 28.72767 | 313 ft | 4 kts | 354° |
| 2026-05-06 22:49 | 41.26905 | 28.72750 | 311 ft | 47 kts | 355° |
| 2026-05-06 22:49 | 41.27524 | 28.72750 | 293 ft | 128 kts | 359° |
| 2026-05-06 22:49 | 41.28648 | 28.72727 | 265 ft | 190 kts | 359° |
| 2026-05-06 22:50 | 41.30023 | 28.72684 | 696 ft | 203 kts | 359° |
| 2026-05-06 22:50 | 41.31469 | 28.72599 | 1504 ft | 209 kts | 358° |
| 2026-05-06 22:50 | 41.32914 | 28.72545 | 2280 ft | 213 kts | 358° |
| 2026-05-06 22:50 | 41.34449 | 28.72506 | 2744 ft | 233 kts | 357° |
| 2026-05-06 22:51 | 41.36143 | 28.72498 | 2614 ft | 246 kts | 359° |
| 2026-05-06 22:51 | 41.37876 | 28.72504 | 2532 ft | 251 kts | 354° |
| 2026-05-06 22:51 | 41.39537 | 28.71826 | 3015 ft | 253 kts | 331° |
| 2026-05-06 22:51 | 41.41116 | 28.70744 | 3914 ft | 255 kts | 332° |
| 2026-05-06 22:52 | 41.42699 | 28.69712 | 4980 ft | 252 kts | 332° |
| 2026-05-06 22:52 | 41.44271 | 28.68696 | 5951 ft | 250 kts | 331° |
| 2026-05-06 22:52 | 41.45629 | 28.67263 | 6673 ft | 252 kts | 309° |
| 2026-05-06 22:52 | 41.46677 | 28.65365 | 7386 ft | 257 kts | 308° |
| 2026-05-06 22:53 | 41.47751 | 28.63432 | 8184 ft | 261 kts | 308° |
| 2026-05-06 22:53 | 41.48851 | 28.61476 | 8983 ft | 266 kts | 309° |
| 2026-05-06 22:53 | 41.49976 | 28.59490 | 9780 ft | 271 kts | 309° |
| 2026-05-06 22:53 | 41.51126 | 28.57470 | 10515 ft | 276 kts | 309° |
| 2026-05-06 22:54 | 41.52296 | 28.55424 | 11281 ft | 279 kts | 309° |
| 2026-05-06 22:54 | 41.53503 | 28.53323 | 11895 ft | 295 kts | 309° |
| 2026-05-06 22:54 | 41.54819 | 28.51041 | 12117 ft | 325 kts | 309° |
| 2026-05-06 22:54 | 41.56259 | 28.48547 | 12419 ft | 351 kts | 309° |
| 2026-05-06 22:55 | 41.57774 | 28.45917 | 13201 ft | 362 kts | 309° |
| 2026-05-06 22:55 | 41.59325 | 28.43223 | 14125 ft | 369 kts | 309° |
| 2026-05-06 22:55 | 41.60897 | 28.40489 | 15055 ft | 373 kts | 309° |
| 2026-05-06 22:55 | 41.62488 | 28.37723 | 16000 ft | 377 kts | 309° |
| 2026-05-06 22:56 | 41.64098 | 28.34924 | 16904 ft | 382 kts | 309° |
| 2026-05-06 22:56 | 41.65731 | 28.32083 | 17800 ft | 388 kts | 309° |
| 2026-05-06 22:56 | 41.67384 | 28.29203 | 18690 ft | 392 kts | 309° |
| 2026-05-06 22:56 | 41.69047 | 28.26305 | 19574 ft | 394 kts | 309° |
| 2026-05-06 22:57 | 41.70720 | 28.23387 | 20392 ft | 397 kts | 309° |
| 2026-05-06 22:57 | 41.72407 | 28.20442 | 21200 ft | 401 kts | 309° |
| 2026-05-06 22:57 | 41.74112 | 28.17462 | 21986 ft | 405 kts | 309° |
| 2026-05-06 22:57 | 41.75834 | 28.14449 | 22777 ft | 409 kts | 309° |
| 2026-05-06 22:58 | 41.77548 | 28.11450 | 23546 ft | 413 kts | 309° |
| 2026-05-06 22:58 | 41.79298 | 28.08381 | 24065 ft | 416 kts | 309° |
| 2026-05-06 22:58 | 41.81063 | 28.05285 | 24099 ft | 419 kts | 309° |
| 2026-05-06 22:58 | 41.82830 | 28.02181 | 24112 ft | 419 kts | 309° |
| 2026-05-06 22:59 | 41.84596 | 27.99073 | 24107 ft | 419 kts | 309° |
| 2026-05-06 22:59 | 41.86361 | 27.95965 | 24104 ft | 419 kts | 309° |
| 2026-05-06 22:59 | 41.88122 | 27.92862 | 24100 ft | 418 kts | 309° |
| 2026-05-06 22:59 | 41.89890 | 27.89744 | 24301 ft | 421 kts | 309° |
| 2026-05-06 23:00 | 41.91669 | 27.86604 | 24971 ft | 423 kts | 309° |
| 2026-05-06 23:00 | 41.93448 | 27.83460 | 25712 ft | 423 kts | 309° |
| 2026-05-06 23:00 | 41.95231 | 27.80306 | 26395 ft | 424 kts | 309° |
| 2026-05-06 23:00 | 41.97066 | 27.77195 | 27018 ft | 426 kts | 313° |
| 2026-05-06 23:01 | 41.99111 | 27.74296 | 27574 ft | 429 kts | 316° |
| 2026-05-06 23:01 | 42.01221 | 27.71439 | 28123 ft | 432 kts | 316° |
| 2026-05-06 23:01 | 42.03346 | 27.68561 | 28688 ft | 435 kts | 316° |
| 2026-05-06 23:01 | 42.05482 | 27.65661 | 29229 ft | 438 kts | 316° |
| 2026-05-06 23:02 | 42.07626 | 27.62735 | 29767 ft | 440 kts | 316° |
| 2026-05-06 23:02 | 42.09777 | 27.59788 | 30253 ft | 442 kts | 316° |
| 2026-05-06 23:02 | 42.11933 | 27.56827 | 30687 ft | 443 kts | 316° |
| 2026-05-06 23:02 | 42.14085 | 27.53865 | 31241 ft | 441 kts | 316° |
| 2026-05-06 23:03 | 42.16229 | 27.50909 | 31746 ft | 441 kts | 316° |
| 2026-05-06 23:03 | 42.18366 | 27.47959 | 32264 ft | 439 kts | 316° |
| 2026-05-06 23:03 | 42.20494 | 27.45019 | 32813 ft | 437 kts | 316° |
| 2026-05-06 23:03 | 42.22612 | 27.42090 | 33338 ft | 435 kts | 316° |
| 2026-05-06 23:04 | 42.24724 | 27.39168 | 33831 ft | 434 kts | 316° |
| 2026-05-06 23:04 | 42.26830 | 27.36251 | 34231 ft | 434 kts | 316° |
| 2026-05-06 23:04 | 42.28910 | 27.33367 | 34574 ft | 434 kts | 316° |
| 2026-05-06 23:04 | 42.31018 | 27.30442 | 34931 ft | 434 kts | 316° |
| 2026-05-06 23:05 | 42.33122 | 27.27518 | 35297 ft | 434 kts | 316° |
| 2026-05-06 23:05 | 42.35227 | 27.24591 | 35644 ft | 434 kts | 316° |
| 2026-05-06 23:05 | 42.37331 | 27.21662 | 35971 ft | 434 kts | 315° |
| 2026-05-06 23:06 | 42.41579 | 27.15740 | 36059 ft | 440 kts | 315° |
| 2026-05-06 23:06 | 42.45823 | 27.09809 | 36087 ft | 436 kts | 315° |
| 2026-05-06 23:07 | 42.50021 | 27.03928 | 36089 ft | 433 kts | 315° |
| 2026-05-06 23:07 | 42.54193 | 26.98075 | 36086 ft | 431 kts | 315° |
| 2026-05-06 23:08 | 42.58357 | 26.92222 | 36078 ft | 431 kts | 315° |
| 2026-05-06 23:08 | 42.62526 | 26.86349 | 36083 ft | 433 kts | 315° |
| 2026-05-06 23:09 | 42.66710 | 26.80441 | 36083 ft | 435 kts | 315° |
| 2026-05-06 23:09 | 42.70882 | 26.74538 | 36082 ft | 437 kts | 315° |
| 2026-05-06 23:10 | 42.75096 | 26.68564 | 36082 ft | 438 kts | 315° |
| 2026-05-06 23:10 | 42.79320 | 26.62564 | 36085 ft | 439 kts | 315° |
| 2026-05-06 23:11 | 42.83300 | 26.56245 | 36076 ft | 440 kts | 308° |
| 2026-05-06 23:11 | 42.86924 | 26.49511 | 36075 ft | 441 kts | 308° |
| 2026-05-06 23:12 | 42.90541 | 26.42768 | 36056 ft | 440 kts | 308° |
| 2026-05-06 23:12 | 42.94164 | 26.36036 | 36056 ft | 440 kts | 308° |
| 2026-05-06 23:13 | 42.97787 | 26.29307 | 36059 ft | 440 kts | 308° |
| 2026-05-06 23:13 | 43.01404 | 26.22579 | 36062 ft | 439 kts | 308° |
| 2026-05-06 23:14 | 43.05017 | 26.15844 | 36047 ft | 439 kts | 307° |
| 2026-05-06 23:14 | 43.08599 | 26.09150 | 36032 ft | 439 kts | 307° |
| 2026-05-06 23:15 | 43.12200 | 26.02404 | 36029 ft | 439 kts | 307° |
| 2026-05-06 23:15 | 43.15800 | 25.95646 | 36034 ft | 439 kts | 307° |
| 2026-05-06 23:16 | 43.19394 | 25.88884 | 36020 ft | 439 kts | 307° |
| 2026-05-06 23:16 | 43.22981 | 25.82118 | 36023 ft | 439 kts | 307° |
| 2026-05-06 23:17 | 43.26564 | 25.75346 | 36027 ft | 439 kts | 307° |
| 2026-05-06 23:17 | 43.30146 | 25.68561 | 36023 ft | 439 kts | 307° |
| 2026-05-06 23:18 | 43.33722 | 25.61769 | 36015 ft | 439 kts | 307° |
| 2026-05-06 23:18 | 43.37295 | 25.54968 | 36017 ft | 439 kts | 307° |
| 2026-05-06 23:19 | 43.40865 | 25.48158 | 36021 ft | 439 kts | 307° |
| 2026-05-06 23:19 | 43.44429 | 25.41342 | 35998 ft | 439 kts | 306° |
| 2026-05-06 23:20 | 43.55072 | 25.20897 | 36015 ft | 439 kts | 306° |
| 2026-05-06 23:20 | 43.69169 | 24.93596 | 35996 ft | 440 kts | 306° |
| 2026-05-06 23:21 | 43.83296 | 24.65978 | 36016 ft | 440 kts | 305° |
| 2026-05-06 23:21 | 43.97364 | 24.38214 | 36006 ft | 440 kts | 304° |
| 2026-05-06 23:22 | 44.11373 | 24.10302 | 36001 ft | 440 kts | 304° |
| 2026-05-06 23:22 | 44.25303 | 23.82278 | 35989 ft | 439 kts | 303° |
| 2026-05-06 23:23 | 44.41108 | 23.56363 | 36001 ft | 438 kts | 310° |
| 2026-05-06 23:23 | 44.57390 | 23.31045 | 36011 ft | 437 kts | 309° |
| 2026-05-06 23:24 | 44.73546 | 23.05650 | 36024 ft | 435 kts | 309° |
| 2026-05-06 23:24 | 44.89554 | 22.80058 | 36021 ft | 435 kts | 307° |
| 2026-05-06 23:25 | 45.04711 | 22.53451 | 36060 ft | 435 kts | 306° |
| 2026-05-06 23:25 | 45.19836 | 22.26856 | 36016 ft | 437 kts | 306° |
| 2026-05-06 23:26 | 45.35035 | 21.99871 | 35997 ft | 437 kts | 306° |
| 2026-05-06 23:26 | 45.50163 | 21.72757 | 35961 ft | 437 kts | 305° |
| 2026-05-06 23:27 | 45.65255 | 21.45441 | 35967 ft | 439 kts | 305° |
| 2026-05-06 23:27 | 45.80319 | 21.17910 | 35950 ft | 439 kts | 305° |
| 2026-05-06 23:28 | 45.94511 | 20.89358 | 35950 ft | 439 kts | 299° |
| 2026-05-06 23:28 | 46.07477 | 20.59437 | 35958 ft | 441 kts | 299° |
| 2026-05-06 23:29 | 46.19863 | 20.28890 | 35924 ft | 442 kts | 294° |
| 2026-05-06 23:29 | 46.31076 | 19.97199 | 35949 ft | 444 kts | 295° |
| 2026-05-06 23:30 | 46.41146 | 19.68536 | 35947 ft | 445 kts | 294° |
| 2026-05-06 23:30 | 46.44925 | 19.57695 | 36601 ft | 449 kts | 294° |
| 2026-05-06 23:30 | 46.46327 | 19.53663 | 37018 ft | 446 kts | 294° |
| 2026-05-06 23:30 | 46.47720 | 19.49655 | 37445 ft | 444 kts | 294° |
| 2026-05-06 23:31 | 46.49104 | 19.45663 | 37837 ft | 442 kts | 294° |
| 2026-05-06 23:31 | 46.55660 | 19.26664 | 37943 ft | 449 kts | 294° |
| 2026-05-06 23:32 | 46.66695 | 18.94380 | 37941 ft | 442 kts | 293° |
| 2026-05-06 23:32 | 46.77495 | 18.62389 | 37926 ft | 438 kts | 292° |
| 2026-05-06 23:33 | 46.88162 | 18.30401 | 37917 ft | 438 kts | 292° |
| 2026-05-06 23:33 | 46.98728 | 17.98324 | 37921 ft | 438 kts | 291° |
| 2026-05-06 23:34 | 47.09224 | 17.66057 | 37948 ft | 440 kts | 290° |
| 2026-05-06 23:34 | 47.19719 | 17.33383 | 37892 ft | 443 kts | 290° |
| 2026-05-06 23:35 | 47.30161 | 17.00447 | 37879 ft | 445 kts | 289° |
| 2026-05-06 23:35 | 47.40547 | 16.67263 | 37871 ft | 447 kts | 289° |
| 2026-05-06 23:36 | 47.52624 | 16.35064 | 37868 ft | 454 kts | 295° |
| 2026-05-06 23:36 | 47.65288 | 16.02604 | 37871 ft | 456 kts | 294° |
| 2026-05-06 23:37 | 47.77902 | 15.69853 | 37854 ft | 458 kts | 294° |
| 2026-05-06 23:37 | 47.90475 | 15.36819 | 37920 ft | 459 kts | 294° |
| 2026-05-06 23:38 | 48.02973 | 15.03563 | 37873 ft | 459 kts | 293° |
| 2026-05-06 23:38 | 48.15352 | 14.70202 | 37877 ft | 458 kts | 293° |
| 2026-05-06 23:39 | 48.27601 | 14.36775 | 37923 ft | 457 kts | 292° |
| 2026-05-06 23:39 | 48.39790 | 14.03080 | 37920 ft | 461 kts | 292° |
| 2026-05-06 23:40 | 48.52000 | 13.68888 | 37953 ft | 467 kts | 292° |
| 2026-05-06 23:40 | 48.62648 | 13.33446 | 37925 ft | 462 kts | 284° |
| 2026-05-06 23:41 | 48.69914 | 13.02908 | 37916 ft | 466 kts | 284° |
| 2026-05-06 23:41 | 48.79983 | 12.59836 | 37905 ft | 467 kts | 284° |
| 2026-05-06 23:42 | 48.88516 | 12.22578 | 37923 ft | 467 kts | 284° |
| 2026-05-06 23:42 | 48.95238 | 11.91101 | 37928 ft | 467 kts | 282° |
| 2026-05-06 23:43 | 49.03137 | 11.53443 | 37891 ft | 466 kts | 282° |
| 2026-05-06 23:43 | 49.10896 | 11.15756 | 37906 ft | 466 kts | 282° |
| 2026-05-06 23:44 | 49.18540 | 10.77915 | 37909 ft | 466 kts | 282° |
| 2026-05-06 23:44 | 49.25416 | 10.40026 | 37945 ft | 465 kts | 280° |
| 2026-05-06 23:45 | 49.32135 | 10.01632 | 37888 ft | 467 kts | 281° |
| 2026-05-06 23:45 | 49.38747 | 9.63021 | 37890 ft | 469 kts | 281° |
| 2026-05-06 23:46 | 49.45260 | 9.24126 | 37867 ft | 472 kts | 281° |
| 2026-05-06 23:46 | 49.50968 | 8.84769 | 37908 ft | 472 kts | 279° |
| 2026-05-06 23:47 | 49.56349 | 8.45129 | 37905 ft | 473 kts | 279° |
| 2026-05-06 23:47 | 49.61602 | 8.05384 | 37911 ft | 473 kts | 279° |
| 2026-05-06 23:48 | 49.66715 | 7.65581 | 37904 ft | 473 kts | 279° |
| 2026-05-06 23:48 | 49.71691 | 7.25707 | 37903 ft | 472 kts | 279° |
| 2026-05-06 23:49 | 49.76514 | 6.85868 | 37894 ft | 470 kts | 278° |
| 2026-05-06 23:49 | 49.81001 | 6.46285 | 37878 ft | 469 kts | 271° |
| 2026-05-06 23:49 | 49.79560 | 6.26422 | 37884 ft | 465 kts | 257° |
| 2026-05-06 23:50 | 49.76870 | 6.06869 | 37916 ft | 464 kts | 257° |
| 2026-05-06 23:50 | 49.76357 | 6.03028 | 37924 ft | 464 kts | 257° |